Terminal Aerodrome Forecast
Issued by NWS

Home | Current Version | Previous Version | Text Only | Print | Product List | Glossary On
Versions: 1 2 3 4 5 6 7 8 9 10 11 12 13 14 15 16 17 18
000
FTUS42 KGSP 200500
TAFHKY
TAF
KHKY 200539Z 2006/2106 03005KT P6SM SCT070 BKN250
     FM201400 02010KT P6SM FEW080 SCT250
     FM210000 04006KT P6SM FEW250=

USA.gov is the U.S. government's official web portal to all federal, state and local government web resources and services.